createdAt,value
2018-11-28T00:00:54.376Z,7.23
2018-11-28T00:03:22.580Z,8.20
2018-11-28T00:05:50.531Z,7.93
2018-11-28T00:08:18.477Z,8.53
2018-11-28T00:10:46.646Z,6.93
2018-11-28T00:13:14.540Z,8.87
2018-11-28T00:15:42.458Z,5.70
2018-11-28T00:18:10.401Z,6.90
2018-11-28T00:20:38.313Z,7.37
2018-11-28T00:23:06.254Z,6.60
2018-11-28T00:25:34.191Z,5.90
2018-11-28T00:28:02.094Z,6.87
2018-11-28T00:30:30.060Z,5.87
2018-11-28T00:32:58.016Z,6.33
2018-11-28T00:35:25.936Z,7.20
2018-11-28T00:37:53.855Z,7.27
2018-11-28T00:40:22.739Z,6.97
2018-11-28T00:42:50.653Z,6.30
2018-11-28T00:45:20.363Z,6.23
2018-11-28T00:47:48.292Z,4.27
2018-11-28T00:50:17.335Z,5.47
2018-11-28T00:52:45.288Z,5.57
2018-11-28T00:55:14.208Z,6.23
2018-11-28T00:57:42.178Z,5.27
2018-11-28T01:00:19.726Z,5.27
2018-11-28T01:02:48.113Z,4.80
2018-11-28T01:05:16.491Z,6.10
2018-11-28T01:07:45.161Z,5.33
2018-11-28T01:10:14.260Z,5.37
2018-11-28T01:12:42.227Z,5.90
2018-11-28T01:15:14.446Z,6.20
2018-11-28T01:17:42.375Z,4.87
2018-11-28T01:20:12.779Z,4.07
2018-11-28T01:22:40.785Z,5.20
2018-11-28T01:25:10.057Z,4.40
2018-11-28T01:27:38.145Z,5.27
2018-11-28T01:30:08.999Z,4.17
2018-11-28T01:32:36.994Z,4.37
2018-11-28T01:35:06.129Z,4.30
2018-11-28T01:37:34.042Z,5.90
2018-11-28T01:40:02.220Z,3.93
2018-11-28T01:42:30.128Z,3.37
2018-11-28T01:44:58.027Z,4.47
2018-11-28T01:47:26.017Z,4.00
2018-11-28T01:49:53.938Z,4.73
2018-11-28T01:52:21.869Z,3.83
2018-11-28T01:54:49.809Z,4.33
2018-11-28T01:57:17.739Z,4.30
2018-11-28T01:59:45.667Z,4.07
2018-11-28T02:02:13.619Z,4.63
2018-11-28T02:04:41.566Z,5.10
2018-11-28T02:07:09.502Z,4.57
2018-11-28T02:09:37.414Z,5.00
2018-11-28T02:12:05.462Z,4.53
2018-11-28T02:14:33.659Z,5.03
2018-11-28T02:17:01.637Z,4.97
2018-11-28T02:19:29.586Z,4.80
2018-11-28T02:21:57.634Z,5.30
2018-11-28T02:24:25.587Z,4.60
2018-11-28T02:26:53.508Z,5.43
2018-11-28T02:29:21.478Z,4.60
2018-11-28T02:31:49.426Z,4.03
2018-11-28T02:34:17.362Z,4.30
2018-11-28T02:36:45.319Z,4.63
2018-11-28T02:40:08.872Z,4.63
2018-11-28T02:42:36.863Z,5.60
2018-11-28T02:45:08.521Z,4.90
2018-11-28T02:47:36.488Z,4.73
2018-11-28T02:50:05.051Z,5.23
2018-11-28T02:52:33.059Z,3.93
2018-11-28T02:55:01.071Z,5.73
2018-11-28T02:57:29.110Z,4.77
2018-11-28T02:59:57.078Z,4.50
2018-11-28T03:02:25.034Z,4.50
2018-11-28T03:04:52.953Z,4.50
2018-11-28T03:07:20.901Z,5.17
2018-11-28T03:09:48.875Z,5.97
2018-11-28T03:12:16.789Z,4.77
2018-11-28T03:14:44.794Z,4.70
2018-11-28T03:17:27.770Z,4.20
2018-11-28T03:19:55.727Z,3.73
2018-11-28T03:22:23.655Z,4.43
2018-11-28T03:24:51.623Z,4.93
2018-11-28T03:27:19.599Z,4.93
2018-11-28T03:29:47.536Z,4.90
2018-11-28T03:32:15.511Z,3.97
2018-11-28T03:34:45.575Z,4.13
2018-11-28T03:37:11.468Z,4.10
2018-11-28T03:39:40.164Z,4.03
2018-11-28T03:42:08.146Z,3.90
2018-11-28T03:44:36.198Z,4.20
2018-11-28T03:47:04.136Z,4.40
2018-11-28T03:49:32.128Z,4.03
2018-11-28T03:52:00.088Z,4.67
2018-11-28T03:54:28.046Z,3.53
2018-11-28T03:56:56.042Z,4.50
2018-11-28T03:59:24.005Z,3.83
2018-11-28T04:01:51.973Z,3.63
2018-11-28T04:04:19.929Z,2.90
2018-11-28T04:06:47.940Z,3.93
2018-11-28T04:09:15.883Z,4.30
2018-11-28T04:11:43.848Z,4.50
2018-11-28T04:14:11.938Z,3.27
2018-11-28T04:16:39.902Z,4.00
2018-11-28T04:19:07.865Z,3.50
2018-11-28T04:21:35.792Z,2.70
2018-11-28T04:24:03.753Z,3.60
2018-11-28T04:26:31.736Z,3.57
2018-11-28T04:28:59.670Z,3.17
2018-11-28T04:31:27.668Z,3.20
2018-11-28T04:33:55.651Z,3.77
2018-11-28T04:36:23.707Z,4.33
2018-11-28T04:38:51.655Z,2.80
2018-11-28T04:41:19.620Z,3.80
2018-11-28T04:43:47.592Z,4.03
2018-11-28T04:46:15.586Z,4.33
2018-11-28T04:48:43.529Z,4.37
2018-11-28T04:51:11.509Z,3.20
2018-11-28T04:53:39.593Z,4.30
2018-11-28T04:56:07.559Z,3.30
2018-11-28T04:58:35.492Z,3.77
2018-11-28T05:01:03.481Z,3.77
2018-11-28T05:03:31.429Z,3.57
2018-11-28T05:05:59.420Z,4.80
2018-11-28T05:08:27.367Z,3.83
2018-11-28T05:10:55.328Z,3.30
2018-11-28T05:13:23.431Z,3.93
2018-11-28T05:15:51.415Z,3.23
2018-11-28T05:18:19.363Z,3.67
2018-11-28T05:20:47.331Z,3.90
2018-11-28T05:23:15.283Z,4.10
2018-11-28T05:25:44.181Z,3.63
2018-11-28T05:28:12.165Z,3.30
2018-11-28T05:30:40.107Z,3.60
2018-11-28T05:33:08.122Z,3.50
2018-11-28T05:35:38.365Z,3.57
2018-11-28T05:38:11.851Z,3.57
2018-11-28T05:40:40.104Z,3.63
2018-11-28T05:43:08.069Z,2.70
2018-11-28T05:45:36.010Z,3.13
2018-11-28T05:48:04.370Z,3.63
2018-11-28T05:50:32.328Z,3.77
2018-11-28T05:53:00.314Z,3.60
2018-11-28T05:55:28.302Z,2.70
2018-11-28T05:57:56.221Z,2.17
2018-11-28T06:00:30.233Z,2.87
2018-11-28T06:02:58.156Z,3.03
2018-11-28T06:05:26.113Z,2.83
2018-11-28T06:07:54.075Z,2.93
2018-11-28T06:10:22.023Z,3.20
2018-11-28T06:12:49.960Z,2.90
2018-11-28T06:15:17.902Z,2.87
2018-11-28T06:17:45.903Z,2.47
2018-11-28T06:20:14.701Z,3.10
2018-11-28T06:22:42.798Z,2.80
2018-11-28T06:25:15.893Z,3.60
2018-11-28T06:27:39.969Z,3.40
2018-11-28T06:30:09.340Z,2.53
2018-11-28T06:32:37.847Z,3.67
2018-11-28T06:35:07.061Z,3.10
2018-11-28T06:37:35.417Z,3.07
2018-11-28T06:40:03.525Z,4.13
2018-11-28T06:42:31.465Z,2.93
2018-11-28T06:45:01.735Z,2.93
2018-11-28T06:47:29.705Z,3.10
2018-11-28T06:49:57.670Z,2.70
2018-11-28T06:52:25.654Z,2.47
2018-11-28T06:54:53.772Z,3.17
2018-11-28T06:57:21.685Z,2.40
2018-11-28T06:59:49.640Z,2.37
2018-11-28T07:02:17.574Z,2.57
2018-11-28T07:04:45.537Z,1.97
2018-11-28T07:07:13.508Z,2.10
2018-11-28T07:09:41.458Z,2.70
2018-11-28T07:12:09.615Z,2.43
2018-11-28T07:14:37.793Z,2.63
2018-11-28T07:17:06.053Z,3.10
2018-11-28T07:19:33.979Z,2.50
2018-11-28T07:22:03.501Z,2.37
2018-11-28T07:24:30.167Z,2.30
2018-11-28T07:26:58.086Z,2.60
2018-11-28T07:29:26.007Z,2.23
2018-11-28T07:31:53.929Z,2.10
2018-11-28T07:34:21.847Z,2.97
2018-11-28T07:36:50.050Z,2.57
2018-11-28T07:39:17.980Z,2.20
2018-11-28T07:41:45.907Z,2.80
2018-11-28T07:44:13.873Z,2.30
2018-11-28T07:46:41.817Z,1.97
2018-11-28T07:49:09.797Z,1.70
2018-11-28T07:51:37.788Z,1.90
2018-11-28T07:54:05.913Z,2.03
2018-11-28T07:56:33.890Z,2.20
2018-11-28T07:59:01.847Z,2.07
2018-11-28T08:01:29.812Z,1.33
2018-11-28T08:03:57.764Z,2.13
2018-11-28T08:06:25.710Z,1.63
2018-11-28T08:09:00.648Z,2.03
2018-11-28T08:11:28.627Z,1.97
2018-11-28T08:13:56.612Z,1.43
2018-11-28T08:16:24.582Z,1.60
2018-11-28T08:18:52.532Z,2.23
2018-11-28T08:21:20.508Z,1.83
2018-11-28T08:23:48.470Z,1.57
2018-11-28T08:26:16.439Z,1.80
2018-11-28T08:28:44.384Z,1.57
2018-11-28T08:31:12.342Z,1.80
2018-11-28T08:33:40.322Z,1.70
2018-11-28T08:36:08.301Z,2.17
2018-11-28T08:38:36.290Z,2.13
2018-11-28T08:41:04.230Z,2.27
2018-11-28T08:43:32.181Z,1.97
2018-11-28T08:46:00.206Z,1.87
2018-11-28T08:48:28.095Z,1.83
2018-11-28T08:50:56.075Z,2.13
2018-11-28T08:53:24.040Z,1.77
2018-11-28T08:55:52.001Z,1.83
2018-11-28T08:58:19.951Z,1.40
2018-11-28T09:00:47.920Z,2.00
2018-11-28T09:03:15.886Z,1.47
2018-11-28T09:05:43.833Z,2.20
2018-11-28T09:08:11.804Z,1.67
2018-11-28T09:10:39.739Z,1.67
2018-11-28T09:13:07.673Z,2.03
2018-11-28T09:15:35.685Z,1.70
2018-11-28T09:18:03.647Z,1.83
2018-11-28T09:20:31.617Z,2.20
2018-11-28T09:22:59.586Z,1.77
2018-11-28T09:25:27.549Z,1.83
2018-11-28T09:27:56.770Z,1.57
2018-11-28T09:30:24.760Z,2.20
2018-11-28T09:32:52.829Z,1.80
2018-11-28T09:35:20.875Z,2.20
2018-11-28T09:37:48.889Z,2.53
2018-11-28T09:40:20.138Z,1.50
2018-11-28T09:42:48.557Z,2.10
2018-11-28T09:45:17.335Z,2.07
2018-11-28T09:47:45.294Z,2.53
2018-11-28T09:50:15.277Z,2.20
2018-11-28T09:52:43.233Z,2.50
2018-11-28T09:55:12.789Z,2.70
2018-11-28T09:57:40.806Z,2.43
2018-11-28T10:00:12.024Z,2.73
2018-11-28T10:02:40.268Z,2.00
2018-11-28T10:05:10.426Z,2.70
2018-11-28T10:07:38.509Z,2.10
2018-11-28T10:10:09.537Z,2.50
2018-11-28T10:12:37.421Z,2.03
2018-11-28T10:15:10.500Z,2.60
2018-11-28T10:17:38.458Z,3.43
2018-11-28T10:20:07.713Z,2.97
2018-11-28T10:22:35.902Z,2.63
2018-11-28T10:25:04.279Z,3.20
2018-11-28T10:27:32.246Z,2.70
2018-11-28T10:30:00.251Z,2.93
2018-11-28T10:32:28.247Z,2.87
2018-11-28T10:34:56.271Z,2.73
2018-11-28T10:37:24.160Z,3.20
2018-11-28T10:39:52.359Z,2.93
2018-11-28T10:42:20.269Z,3.30
2018-11-28T10:44:48.217Z,3.63
2018-11-28T10:47:16.198Z,3.87
2018-11-28T10:49:44.129Z,4.03
2018-11-28T10:52:12.097Z,3.57
2018-11-28T10:54:40.033Z,3.97
2018-11-28T10:57:08.010Z,3.50
2018-11-28T10:59:36.023Z,3.93
2018-11-28T11:02:23.215Z,3.83
2018-11-28T11:05:10.439Z,3.20
2018-11-28T11:07:57.683Z,3.27
2018-11-28T11:10:44.886Z,2.27
2018-11-28T11:13:32.149Z,3.70
2018-11-28T11:16:00.139Z,3.00
2018-11-28T11:18:28.786Z,3.53
2018-11-28T11:20:56.758Z,3.20
2018-11-28T11:23:24.762Z,3.63
2018-11-28T11:25:53.171Z,2.33
2018-11-28T11:28:21.188Z,2.23
2018-11-28T11:30:49.234Z,3.03
2018-11-28T11:33:17.195Z,2.20
2018-11-28T11:35:45.163Z,2.77
2018-11-28T11:38:13.112Z,2.37
2018-11-28T11:40:41.059Z,2.00
2018-11-28T11:43:09.489Z,2.27
2018-11-28T11:45:37.487Z,1.90
2018-11-28T11:48:05.984Z,2.03
2018-11-28T11:50:34.050Z,1.40
2018-11-28T11:53:01.992Z,2.10
2018-11-28T11:55:29.956Z,2.37
2018-11-28T11:57:57.919Z,2.00
2018-11-28T12:00:26.600Z,1.60
2018-11-28T12:03:10.906Z,1.57
2018-11-28T12:05:40.569Z,1.60
2018-11-28T12:08:08.541Z,1.67
2018-11-28T12:10:36.603Z,1.37
2018-11-28T12:13:04.665Z,1.50
2018-11-28T12:15:32.578Z,1.70
2018-11-28T12:18:00.531Z,1.60
2018-11-28T12:20:35.229Z,1.43
2018-11-28T12:23:03.189Z,1.43
2018-11-28T12:25:31.149Z,1.40
2018-11-28T12:27:59.087Z,1.70
2018-11-28T12:30:27.025Z,1.57
2018-11-28T12:32:54.977Z,1.60
2018-11-28T12:35:22.915Z,1.37
2018-11-28T12:37:50.866Z,1.30
2018-11-28T12:40:18.807Z,1.13
2018-11-28T12:42:50.267Z,1.40
2018-11-28T12:45:19.193Z,1.33
2018-11-28T12:47:47.539Z,1.73
2018-11-28T12:50:24.485Z,1.17
2018-11-28T12:52:53.474Z,0.83
2018-11-28T12:55:21.828Z,1.70
2018-11-28T12:57:50.529Z,0.63
2018-11-28T13:00:19.955Z,1.30
2018-11-28T13:02:47.920Z,0.90
2018-11-28T13:05:17.876Z,1.00
2018-11-28T13:07:45.803Z,1.13
2018-11-28T13:10:15.137Z,1.30
2018-11-28T13:12:43.510Z,1.00
2018-11-28T13:15:12.675Z,1.00
2018-11-28T13:17:40.629Z,1.50
2018-11-28T13:20:09.992Z,1.40
2018-11-28T13:22:37.936Z,1.30
2018-11-28T13:25:07.691Z,0.90
2018-11-28T13:27:35.697Z,1.50
2018-11-28T13:30:05.803Z,1.40
2018-11-28T13:32:33.739Z,1.70
2018-11-28T13:35:01.677Z,1.07
2018-11-28T13:37:29.665Z,1.40
2018-11-28T13:39:57.603Z,1.50
2018-11-28T13:42:25.600Z,1.10
2018-11-28T13:44:53.558Z,1.27
2018-11-28T13:47:21.548Z,2.00
2018-11-28T13:49:49.541Z,1.67
2018-11-28T13:52:17.452Z,1.50
2018-11-28T13:55:37.475Z,1.30
2018-11-28T13:57:13.350Z,1.50
2018-11-28T13:59:41.340Z,1.53
2018-11-28T14:02:09.240Z,1.73
2018-11-28T14:04:37.186Z,1.50
2018-11-28T14:07:05.216Z,1.43
2018-11-28T14:09:33.194Z,1.67
2018-11-28T14:12:01.144Z,1.93
2018-11-28T14:14:29.094Z,1.43
2018-11-28T14:16:57.333Z,1.27
2018-11-28T14:19:25.273Z,1.57
2018-11-28T14:21:53.234Z,1.50
2018-11-28T14:24:21.154Z,1.67
2018-11-28T14:26:49.066Z,2.13
2018-11-28T14:29:17.010Z,1.60
2018-11-28T14:31:44.949Z,1.77
2018-11-28T14:34:12.944Z,1.70
2018-11-28T14:36:40.858Z,1.57
2018-11-28T14:39:09.154Z,2.10
2018-11-28T14:41:37.136Z,2.20
2018-11-28T14:44:05.072Z,2.43
2018-11-28T14:46:33.012Z,2.33
2018-11-28T14:49:00.938Z,2.40
2018-11-28T14:51:28.946Z,2.20
2018-11-28T14:53:56.982Z,2.27
2018-11-28T14:56:24.957Z,1.80
2018-11-28T14:58:52.919Z,1.97
2018-11-28T15:01:21.251Z,2.63
2018-11-28T15:03:49.598Z,2.70
2018-11-28T15:06:20.354Z,2.70
2018-11-28T15:08:50.616Z,2.40
2018-11-28T15:11:18.600Z,3.07
2018-11-28T15:13:46.552Z,2.73
2018-11-28T15:16:14.478Z,2.80
2018-11-28T15:18:42.456Z,3.20
2018-11-28T15:21:11.036Z,2.87
2018-11-28T15:23:39.498Z,3.90
2018-11-28T15:26:07.424Z,2.60
2018-11-28T15:28:35.333Z,3.30
2018-11-28T15:31:03.244Z,3.73
2018-11-28T15:33:31.177Z,3.90
2018-11-28T15:35:59.106Z,3.70
2018-11-28T15:38:27.023Z,3.43
2018-11-28T15:40:54.957Z,3.60
2018-11-28T15:43:23.170Z,3.93
2018-11-28T15:45:51.108Z,3.37
2018-11-28T15:48:19.029Z,4.23
2018-11-28T15:50:46.958Z,3.67
2018-11-28T15:53:14.874Z,3.93
2018-11-28T15:55:42.827Z,4.33
2018-11-28T15:58:10.757Z,4.90
2018-11-28T16:00:38.886Z,3.20
2018-11-28T16:03:07.185Z,4.50
2018-11-28T16:05:35.089Z,4.87
2018-11-28T16:08:03.107Z,4.70
2018-11-28T16:10:46.203Z,3.63
2018-11-28T16:13:15.674Z,4.00
2018-11-28T16:15:45.996Z,4.30
2018-11-28T16:18:13.955Z,4.83
2018-11-28T16:20:41.970Z,5.00
2018-11-28T16:23:09.905Z,4.27
2018-11-28T16:25:37.888Z,5.63
2018-11-28T16:28:06.603Z,5.47
2018-11-28T16:30:34.531Z,4.83
2018-11-28T16:33:02.531Z,5.23
2018-11-28T16:35:30.469Z,6.17
2018-11-28T16:37:58.385Z,4.30
2018-11-28T16:40:26.331Z,5.03
2018-11-28T16:42:54.302Z,4.80
2018-11-28T16:45:22.270Z,4.73
2018-11-28T16:47:50.392Z,5.40
2018-11-28T16:50:18.611Z,4.50
2018-11-28T16:52:46.942Z,5.23
2018-11-28T16:55:15.834Z,5.17
2018-11-28T16:57:46.149Z,4.50
2018-11-28T17:00:16.303Z,5.30
2018-11-28T17:02:44.518Z,4.53
2018-11-28T17:05:16.591Z,5.40
2018-11-28T17:07:44.747Z,4.43
2018-11-28T17:10:18.560Z,5.23
2018-11-28T17:12:47.702Z,4.73
2018-11-28T17:15:16.578Z,4.97
2018-11-28T17:17:44.657Z,5.47
2018-11-28T17:20:14.846Z,4.60
2018-11-28T17:22:43.010Z,5.00
2018-11-28T17:25:13.401Z,5.10
2018-11-28T17:27:41.444Z,4.87
2018-11-28T17:30:12.050Z,4.83
2018-11-28T17:32:40.058Z,5.10
2018-11-28T17:35:09.087Z,4.87
2018-11-28T17:37:37.342Z,5.90
2018-11-28T17:40:09.770Z,5.20
2018-11-28T17:42:37.765Z,5.93
2018-11-28T17:45:08.132Z,4.83
2018-11-28T17:47:36.136Z,4.30
2018-11-28T17:50:06.701Z,5.47
2018-11-28T17:52:34.624Z,5.30
2018-11-28T17:55:02.608Z,5.03
2018-11-28T17:57:30.576Z,4.57
2018-11-28T17:59:58.583Z,4.53
2018-11-28T18:02:26.563Z,3.97
2018-11-28T18:04:54.518Z,5.13
2018-11-28T18:07:22.429Z,4.33
2018-11-28T18:09:50.371Z,4.70
2018-11-28T18:12:18.279Z,5.37
2018-11-28T18:14:46.444Z,5.40
2018-11-28T18:17:15.089Z,4.03
2018-11-28T18:19:43.010Z,5.20
2018-11-28T18:22:10.964Z,4.67
2018-11-28T18:24:38.938Z,4.73
2018-11-28T18:27:06.921Z,4.10
2018-11-28T18:29:34.890Z,4.33
2018-11-28T18:32:02.924Z,3.80
2018-11-28T18:34:30.849Z,3.57
2018-11-28T18:36:58.855Z,3.80
2018-11-28T18:39:26.809Z,3.00
2018-11-28T18:41:54.763Z,3.80
2018-11-28T18:44:22.684Z,2.97
2018-11-28T18:46:50.616Z,3.23
2018-11-28T18:49:18.596Z,2.77
2018-11-28T18:51:46.505Z,3.17
2018-11-28T18:54:14.464Z,2.47
2018-11-28T18:56:42.369Z,1.67
2018-11-28T18:59:10.338Z,2.73
2018-11-28T19:01:38.309Z,3.00
2018-11-28T19:04:06.288Z,3.20
2018-11-28T19:06:34.198Z,2.50
2018-11-28T19:09:02.389Z,2.57
2018-11-28T19:11:30.323Z,3.13
2018-11-28T19:13:58.309Z,2.67
2018-11-28T19:16:26.251Z,2.97
2018-11-28T19:18:54.201Z,2.30
2018-11-28T19:21:22.191Z,2.93
2018-11-28T19:23:50.166Z,2.80
2018-11-28T19:26:18.358Z,2.80
2018-11-28T19:28:46.257Z,2.37
2018-11-28T19:31:14.287Z,3.57
2018-11-28T19:33:42.340Z,3.10
2018-11-28T19:36:10.246Z,3.13
2018-11-28T19:38:38.145Z,2.80
2018-11-28T19:41:08.068Z,2.70
2018-11-28T19:43:36.027Z,2.53
2018-11-28T19:46:04.019Z,2.70
2018-11-28T19:48:31.949Z,3.17
2018-11-28T19:50:59.895Z,3.53
2018-11-28T19:53:27.846Z,3.07
2018-11-28T19:55:55.816Z,2.50
2018-11-28T19:58:23.746Z,2.47
2018-11-28T20:00:51.721Z,3.33
2018-11-28T20:03:19.678Z,3.03
2018-11-28T20:05:47.738Z,2.57
2018-11-28T20:08:15.689Z,2.30
2018-11-28T20:10:43.626Z,2.97
2018-11-28T20:13:11.541Z,3.10
2018-11-28T20:15:41.542Z,2.00
2018-11-28T20:18:09.501Z,2.83
2018-11-28T20:20:37.459Z,3.00
2018-11-28T20:23:06.051Z,2.60
2018-11-28T20:25:34.005Z,2.57
2018-11-28T20:28:01.937Z,2.50
2018-11-28T20:30:39.185Z,2.43
2018-11-28T20:33:08.189Z,2.43
2018-11-28T20:35:36.225Z,2.53
2018-11-28T20:38:04.307Z,2.67
2018-11-28T20:40:32.280Z,2.87
2018-11-28T20:43:00.299Z,2.20
2018-11-28T20:45:28.288Z,2.30
2018-11-28T20:47:56.268Z,3.07
2018-11-28T20:50:26.167Z,2.80
2018-11-28T20:52:55.665Z,2.30
2018-11-28T20:55:23.619Z,2.57
2018-11-28T20:57:51.557Z,2.87
2018-11-28T21:00:21.023Z,2.43
2018-11-28T21:02:49.021Z,2.67
2018-11-28T21:05:17.007Z,2.73
2018-11-28T21:07:45.003Z,2.67
2018-11-28T21:10:33.386Z,2.50
2018-11-28T21:13:01.429Z,2.23
2018-11-28T21:15:29.186Z,2.63
2018-11-28T21:17:57.133Z,2.33
2018-11-28T21:20:25.111Z,2.17
2018-11-28T21:23:10.739Z,3.00
2018-11-28T21:25:38.647Z,2.67
2018-11-28T21:28:06.631Z,2.73
2018-11-28T21:30:34.642Z,2.40
2018-11-28T21:36:36.889Z,2.77
2018-11-28T21:39:07.968Z,2.80
2018-11-28T21:41:36.121Z,2.77
2018-11-28T21:44:04.138Z,2.60
2018-11-28T21:46:32.156Z,2.97
2018-11-28T21:49:00.080Z,2.30
2018-11-28T21:51:28.071Z,2.17
2018-11-28T21:53:56.115Z,2.90
2018-11-28T21:56:24.071Z,2.87
2018-11-28T21:58:52.076Z,2.20
2018-11-28T22:01:20.006Z,2.67
2018-11-28T22:03:47.940Z,2.80
2018-11-28T22:06:15.960Z,2.90
2018-11-28T22:08:43.926Z,2.70
2018-11-28T22:11:11.864Z,2.80
2018-11-28T22:13:39.885Z,2.50
2018-11-28T22:16:07.852Z,2.60
2018-11-28T22:18:35.798Z,2.47
2018-11-28T22:21:03.789Z,3.10
2018-11-28T22:23:31.968Z,2.17
2018-11-28T22:25:59.930Z,2.73
2018-11-28T22:28:27.846Z,3.23
2018-11-28T22:30:55.798Z,2.53
2018-11-28T22:33:23.754Z,3.63
2018-11-28T22:35:51.730Z,3.37
2018-11-28T22:38:19.697Z,3.20
2018-11-28T22:40:47.639Z,2.97
2018-11-28T22:43:15.580Z,2.00
2018-11-28T22:45:43.608Z,3.27
2018-11-28T22:48:11.536Z,2.60
2018-11-28T22:50:39.752Z,3.33
2018-11-28T22:53:07.694Z,2.10
2018-11-28T22:55:35.620Z,2.67
2018-11-28T22:58:03.548Z,2.47
2018-11-28T23:00:50.728Z,5.20
2018-11-28T23:03:18.643Z,2.80
2018-11-28T23:05:48.253Z,1.97
2018-11-28T23:08:17.457Z,2.33
2018-11-28T23:10:45.708Z,1.67
2018-11-28T23:13:14.649Z,2.33
2018-11-28T23:15:42.553Z,1.90
2018-11-28T23:18:11.048Z,1.90
2018-11-28T23:20:39.078Z,1.30
2018-11-28T23:23:07.868Z,2.40
2018-11-28T23:25:36.164Z,1.87
2018-11-28T23:28:04.306Z,1.90
2018-11-28T23:30:32.236Z,1.73
2018-11-28T23:33:00.162Z,1.80
2018-11-28T23:35:28.262Z,1.50
2018-11-28T23:37:56.206Z,1.53
2018-11-28T23:40:25.105Z,1.83
2018-11-28T23:42:53.672Z,2.27
2018-11-28T23:45:21.846Z,1.53
2018-11-28T23:47:49.988Z,2.13
2018-11-28T23:50:19.096Z,2.00
2018-11-28T23:52:47.508Z,1.70
2018-11-28T23:55:16.818Z,2.70
2018-11-28T23:57:44.751Z,1.60
